Time;durP1;ratioP1;P1;durP2;ratioP2;P2;SDS_P1;SDS_P2;PMS_P1;PMS_P2;Temp;Humidity;BMP_temperature;BMP_pressure;BME280_temperature;BME280_humidity;BME280_pressure;Samples;Min_cycle;Max_cycle;Signal;HPM_P1;HPM_P2
2023/05/07 00:02:21;;;;;;;;;;;11.90;99.90;;;;;;5088006;28;19931;-72
2023/05/07 00:04:46;;;;;;;;;;;11.90;99.90;;;;;;5089285;28;19928;-72
2023/05/07 00:07:12;;;;;;;;;;;11.90;99.90;;;;;;5088158;28;20057;-72
2023/05/07 00:09:37;;;;;;;;;;;11.90;99.90;;;;;;5089378;28;19976;-71
2023/05/07 00:12:03;;;;;;;;;;;11.80;99.90;;;;;;5088640;28;20389;-71
2023/05/07 00:14:29;;;;;;;;;;;11.90;99.90;;;;;;5088052;28;19934;-72
2023/05/07 00:16:54;;;;;;;;;;;11.90;99.90;;;;;;5072571;28;19924;-71
2023/05/07 00:19:20;;;;;;;;;;;11.90;99.90;;;;;;5070209;28;20709;-71
2023/05/07 00:21:46;;;;;;;;;;;11.90;99.90;;;;;;5070680;28;19924;-73
2023/05/07 00:24:11;;;;;;;;;;;11.90;99.90;;;;;;5088945;28;19931;-73
2023/05/07 00:26:37;;;;;;;;;;;11.90;99.90;;;;;;5090914;28;19924;-73
2023/05/07 00:29:02;;;;;;;;;;;11.90;99.90;;;;;;5090274;28;19931;-71
2023/05/07 00:31:28;;;;;;;;;;;11.90;99.90;;;;;;5073228;28;19924;-71
2023/05/07 00:33:53;;;;;;;;;;;11.90;99.90;;;;;;5095720;28;19924;-71
2023/05/07 00:36:19;;;;;;;;;;;11.90;99.90;;;;;;5097766;28;20293;-71
2023/05/07 00:38:44;;;;;;;;;;;11.90;99.90;;;;;;5094781;28;19927;-71
2023/05/07 00:41:10;;;;;;;;;;;11.90;99.90;;;;;;5093279;28;20404;-71
2023/05/07 00:43:35;;;;;;;;;;;11.90;99.90;;;;;;5093569;28;19931;-72
2023/05/07 00:46:01;;;;;;;;;;;12.00;99.90;;;;;;5111013;28;19928;-71
2023/05/07 00:48:26;;;;;;;;;;;11.90;99.90;;;;;;5110632;28;20343;-71
2023/05/07 00:50:52;;;;;;;;;;;12.00;99.90;;;;;;5098690;28;20390;-71
2023/05/07 00:53:17;;;;;;;;;;;12.00;99.90;;;;;;5091901;28;19985;-71
2023/05/07 00:55:43;;;;;;;;;;;12.00;99.90;;;;;;5091589;28;20336;-71
2023/05/07 00:58:08;;;;;;;;;;;12.00;99.90;;;;;;5091312;28;19931;-71
2023/05/07 01:00:35;;;;;;;;;;;12.00;99.90;;;;;;5090406;28;19931;-73
2023/05/07 01:03:01;;;;;;;;;;;12.00;99.90;;;;;;5089608;28;20459;-71
2023/05/07 01:05:27;;;;;;;;;;;12.00;99.90;;;;;;5072894;28;19928;-71
2023/05/07 01:07:54;;;;;;;;;;;12.00;99.90;;;;;;5091768;28;19954;-71
2023/05/07 01:10:20;;;;;;;;;;;11.90;99.90;;;;;;5091221;28;19924;-71
2023/05/07 01:12:46;;;;;;;;;;;11.90;99.90;;;;;;5090364;28;19924;-71
2023/05/07 01:15:12;;;;;;;;;;;11.90;99.90;;;;;;5073348;28;19931;-71
2023/05/07 01:17:39;;;;;;;;;;;12.00;99.90;;;;;;5089568;28;19928;-71
2023/05/07 01:20:05;;;;;;;;;;;12.00;99.90;;;;;;5091544;28;20343;-71
2023/05/07 01:22:32;;;;;;;;;;;11.90;99.90;;;;;;5070470;28;19981;-71
2023/05/07 01:24:59;;;;;;;;;;;11.90;99.90;;;;;;5073113;28;19924;-72
2023/05/07 01:27:25;;;;;;;;;;;11.90;99.90;;;;;;5085749;28;19951;-72
2023/05/07 01:29:50;;;;;;;;;;;11.90;99.90;;;;;;5090976;28;20301;-71
2023/05/07 01:32:18;;;;;;;;;;;12.00;99.90;;;;;;5090574;28;20294;-72
2023/05/07 01:34:45;;;;;;;;;;;11.90;99.90;;;;;;5090841;28;20314;-72
2023/05/07 01:37:11;;;;;;;;;;;11.90;99.90;;;;;;5089063;28;20424;-72
2023/05/07 01:39:38;;;;;;;;;;;11.90;99.90;;;;;;5096023;28;19924;-72
2023/05/07 01:42:04;;;;;;;;;;;12.00;99.90;;;;;;5091714;28;19993;-72
2023/05/07 01:44:30;;;;;;;;;;;12.00;99.90;;;;;;5091678;28;19924;-72
2023/05/07 01:46:56;;;;;;;;;;;12.00;99.90;;;;;;5096516;28;19928;-72
2023/05/07 01:49:22;;;;;;;;;;;12.00;99.90;;;;;;5108979;28;19924;-72
2023/05/07 01:51:47;;;;;;;;;;;12.00;99.90;;;;;;5101722;28;19928;-72
2023/05/07 01:54:14;;;;;;;;;;;11.90;99.90;;;;;;5102323;28;19924;-72
2023/05/07 01:56:40;;;;;;;;;;;11.90;99.90;;;;;;5072930;28;20424;-71
2023/05/07 01:59:05;;;;;;;;;;;11.90;99.90;;;;;;5096329;28;19955;-71
2023/05/07 02:01:31;;;;;;;;;;;11.90;99.90;;;;;;5096244;28;19989;-72
2023/05/07 02:03:56;;;;;;;;;;;11.90;99.90;;;;;;5090159;28;19928;-71
2023/05/07 02:06:22;;;;;;;;;;;11.80;99.90;;;;;;5096391;28;20054;-72
2023/05/07 02:08:47;;;;;;;;;;;11.80;99.90;;;;;;5077091;28;19924;-72
2023/05/07 02:11:13;;;;;;;;;;;11.80;99.90;;;;;;5090729;28;19928;-71
2023/05/07 02:13:38;;;;;;;;;;;11.80;99.90;;;;;;5101737;28;19923;-71
2023/05/07 02:16:04;;;;;;;;;;;11.80;99.90;;;;;;5097050;28;19928;-72
2023/05/07 02:18:30;;;;;;;;;;;11.80;99.90;;;;;;5096478;28;20020;-72
2023/05/07 02:20:55;;;;;;;;;;;11.80;99.90;;;;;;5090365;28;20738;-72
2023/05/07 02:23:21;;;;;;;;;;;11.80;99.90;;;;;;5096360;28;19935;-72
2023/05/07 02:25:46;;;;;;;;;;;11.70;99.90;;;;;;5096630;28;19928;-72
2023/05/07 02:28:12;;;;;;;;;;;11.70;99.90;;;;;;5095081;28;19928;-72
2023/05/07 02:30:38;;;;;;;;;;;11.70;99.90;;;;;;5090338;28;20039;-72
2023/05/07 02:33:03;;;;;;;;;;;11.70;99.90;;;;;;5089617;28;19928;-71
2023/05/07 02:35:29;;;;;;;;;;;11.70;99.90;;;;;;5090444;28;19967;-72
2023/05/07 02:37:54;;;;;;;;;;;11.60;99.90;;;;;;5093647;28;20010;-71
2023/05/07 02:40:20;;;;;;;;;;;11.60;99.90;;;;;;5106742;28;20026;-71
2023/05/07 02:42:45;;;;;;;;;;;11.60;99.90;;;;;;5101124;28;19924;-71
2023/05/07 02:45:11;;;;;;;;;;;11.60;99.90;;;;;;5100385;28;19931;-71
2023/05/07 02:47:36;;;;;;;;;;;11.50;99.90;;;;;;5103903;28;20382;-71
2023/05/07 02:50:02;;;;;;;;;;;11.50;99.90;;;;;;5096651;28;19977;-71
2023/05/07 02:52:28;;;;;;;;;;;11.50;99.90;;;;;;5102939;28;19931;-71
2023/05/07 02:54:53;;;;;;;;;;;11.50;99.90;;;;;;5106860;28;19924;-72
2023/05/07 02:57:19;;;;;;;;;;;11.50;99.90;;;;;;5105499;28;20301;-71
2023/05/07 02:59:44;;;;;;;;;;;11.50;99.90;;;;;;5108748;28;19931;-72
2023/05/07 03:02:10;;;;;;;;;;;11.50;99.90;;;;;;5087824;28;19927;-72
2023/05/07 03:04:35;;;;;;;;;;;11.50;99.90;;;;;;5107648;28;19934;-72
2023/05/07 03:07:01;;;;;;;;;;;11.40;99.90;;;;;;5104175;28;20006;-72
2023/05/07 03:09:26;;;;;;;;;;;11.40;99.90;;;;;;5070752;28;19924;-72
2023/05/07 03:11:52;;;;;;;;;;;11.40;99.90;;;;;;5088626;28;19934;-71
2023/05/07 03:14:17;;;;;;;;;;;11.40;99.90;;;;;;5089957;28;19924;-72
2023/05/07 03:16:43;;;;;;;;;;;11.40;99.90;;;;;;5090187;28;19927;-72
2023/05/07 03:19:08;;;;;;;;;;;11.40;99.90;;;;;;5090399;28;19931;-71
2023/05/07 03:21:34;;;;;;;;;;;11.30;99.90;;;;;;5089941;28;19932;-72
2023/05/07 03:24:00;;;;;;;;;;;11.30;99.90;;;;;;5088905;28;20336;-72
2023/05/07 03:26:25;;;;;;;;;;;11.30;99.90;;;;;;5089723;28;20007;-72
2023/05/07 03:28:51;;;;;;;;;;;11.30;99.90;;;;;;5088498;28;19924;-71
2023/05/07 03:31:17;;;;;;;;;;;11.20;99.90;;;;;;5090158;28;19939;-72
2023/05/07 03:33:52;;;;;;;;;;;11.20;99.90;;;;;;5088597;28;20382;-71
2023/05/07 03:36:18;;;;;;;;;;;11.20;99.90;;;;;;5087736;28;19960;-72
2023/05/07 03:38:43;;;;;;;;;;;11.20;99.90;;;;;;5088323;28;19959;-72
2023/05/07 03:41:09;;;;;;;;;;;11.20;99.90;;;;;;5089682;28;19924;-72
2023/05/07 03:43:34;;;;;;;;;;;11.20;99.90;;;;;;5088156;28;19932;-71
2023/05/07 03:46:00;;;;;;;;;;;11.20;99.90;;;;;;5089563;28;20009;-71
2023/05/07 03:48:25;;;;;;;;;;;11.20;99.90;;;;;;5071070;28;19931;-71
2023/05/07 03:50:51;;;;;;;;;;;11.10;99.90;;;;;;5089159;28;19931;-71
2023/05/07 03:53:16;;;;;;;;;;;11.10;99.90;;;;;;5089526;28;20057;-72
2023/05/07 03:55:42;;;;;;;;;;;11.10;99.90;;;;;;5092309;28;19969;-72
2023/05/07 03:58:07;;;;;;;;;;;11.10;99.90;;;;;;5097395;28;19931;-71
2023/05/07 04:00:37;;;;;;;;;;;11.10;99.90;;;;;;5090413;28;19993;-72
2023/05/07 04:03:04;;;;;;;;;;;11.10;99.90;;;;;;5092292;28;19935;-72
2023/05/07 04:05:30;;;;;;;;;;;11.10;99.90;;;;;;5091966;28;19931;-72
2023/05/07 04:07:55;;;;;;;;;;;11.00;99.90;;;;;;5103871;28;19924;-72
2023/05/07 04:10:21;;;;;;;;;;;10.90;99.90;;;;;;5093532;28;19958;-72
2023/05/07 04:12:47;;;;;;;;;;;10.90;99.90;;;;;;5093681;28;20408;-72
2023/05/07 04:15:12;;;;;;;;;;;10.90;99.90;;;;;;5102869;28;19928;-72
2023/05/07 04:17:38;;;;;;;;;;;10.90;99.90;;;;;;5091831;28;19939;-71
2023/05/07 04:20:04;;;;;;;;;;;10.90;99.90;;;;;;5107747;28;20007;-71
2023/05/07 04:22:29;;;;;;;;;;;10.90;99.90;;;;;;5110585;28;20301;-71
2023/05/07 04:24:55;;;;;;;;;;;10.90;99.90;;;;;;5092556;27;20412;-71
2023/05/07 04:27:21;;;;;;;;;;;10.90;99.90;;;;;;5092863;28;19962;-72
2023/05/07 04:29:47;;;;;;;;;;;10.80;99.90;;;;;;5091366;28;19924;-72
2023/05/07 04:32:13;;;;;;;;;;;10.90;99.90;;;;;;5102425;28;19930;-72
2023/05/07 04:34:38;;;;;;;;;;;10.80;99.90;;;;;;5091269;28;19924;-72
2023/05/07 04:37:04;;;;;;;;;;;10.80;99.90;;;;;;5092030;28;20306;-72
2023/05/07 04:39:29;;;;;;;;;;;10.80;99.90;;;;;;5091041;28;19931;-72
2023/05/07 04:41:55;;;;;;;;;;;10.80;99.90;;;;;;5091008;28;19924;-72
2023/05/07 04:44:21;;;;;;;;;;;10.80;99.90;;;;;;5077330;28;19931;-72
2023/05/07 04:46:46;;;;;;;;;;;10.80;99.90;;;;;;5109445;28;19927;-72
2023/05/07 04:49:12;;;;;;;;;;;10.80;99.90;;;;;;5107657;28;19957;-72
2023/05/07 04:51:38;;;;;;;;;;;10.70;99.90;;;;;;5099078;28;19931;-72
2023/05/07 04:54:03;;;;;;;;;;;10.70;99.90;;;;;;5091309;28;20038;-72
2023/05/07 04:56:29;;;;;;;;;;;10.70;99.90;;;;;;5092178;28;20007;-72
2023/05/07 04:58:55;;;;;;;;;;;10.70;99.90;;;;;;5092155;28;19924;-72
2023/05/07 05:01:21;;;;;;;;;;;10.70;99.90;;;;;;5091344;28;19928;-72
2023/05/07 05:03:46;;;;;;;;;;;10.70;99.90;;;;;;5090564;28;19928;-71
2023/05/07 05:06:12;;;;;;;;;;;10.70;99.90;;;;;;5092498;28;19924;-72
2023/05/07 05:08:37;;;;;;;;;;;10.70;99.90;;;;;;5104050;28;20375;-72
2023/05/07 05:11:03;;;;;;;;;;;10.70;99.90;;;;;;5090892;28;20054;-71
2023/05/07 05:13:30;;;;;;;;;;;10.70;99.90;;;;;;5104608;28;20038;-72
2023/05/07 05:15:55;;;;;;;;;;;10.60;99.90;;;;;;5101922;28;19969;-71
2023/05/07 05:18:21;;;;;;;;;;;10.70;99.90;;;;;;5110606;28;19923;-71
2023/05/07 05:20:46;;;;;;;;;;;10.60;99.90;;;;;;5110041;28;19935;-72
2023/05/07 05:23:12;;;;;;;;;;;10.60;99.90;;;;;;5109730;28;19927;-72
2023/05/07 05:25:39;;;;;;;;;;;10.60;99.90;;;;;;5111758;28;20297;-71
2023/05/07 05:28:04;;;;;;;;;;;10.60;99.90;;;;;;5108593;28;19936;-72
2023/05/07 05:30:30;;;;;;;;;;;10.60;99.90;;;;;;5110635;28;19924;-72
2023/05/07 05:32:55;;;;;;;;;;;10.60;99.90;;;;;;5094640;28;20030;-72
2023/05/07 05:35:21;;;;;;;;;;;10.60;99.90;;;;;;5100638;28;19982;-72
2023/05/07 05:37:46;;;;;;;;;;;10.60;99.90;;;;;;5093049;28;19928;-72
2023/05/07 05:40:12;;;;;;;;;;;10.60;99.90;;;;;;5091384;28;19930;-72
2023/05/07 05:42:37;;;;;;;;;;;10.60;99.90;;;;;;5091176;28;20381;-72
2023/05/07 05:45:03;;;;;;;;;;;10.60;99.90;;;;;;5099001;28;19976;-72
2023/05/07 05:47:29;;;;;;;;;;;10.60;99.90;;;;;;5074948;28;19970;-72
2023/05/07 05:49:54;;;;;;;;;;;10.60;99.90;;;;;;5090081;28;20294;-71
2023/05/07 05:52:23;;;;;;;;;;;10.60;99.90;;;;;;5102700;28;19931;-72
2023/05/07 05:54:49;;;;;;;;;;;10.60;99.90;;;;;;5099543;28;20396;-72
2023/05/07 05:57:14;;;;;;;;;;;10.60;99.90;;;;;;5106419;28;19924;-72
2023/05/07 05:59:40;;;;;;;;;;;10.60;99.90;;;;;;5073275;28;19924;-72
2023/05/07 06:02:06;;;;;;;;;;;10.60;99.90;;;;;;5090789;28;19924;-72
2023/05/07 06:04:31;;;;;;;;;;;10.60;99.90;;;;;;5090602;28;19959;-72
2023/05/07 06:06:57;;;;;;;;;;;10.60;99.90;;;;;;5089825;28;20270;-72
2023/05/07 06:09:22;;;;;;;;;;;10.60;99.90;;;;;;5090240;28;20062;-72
2023/05/07 06:11:48;;;;;;;;;;;10.60;99.90;;;;;;5092907;28;19932;-71
2023/05/07 06:14:13;;;;;;;;;;;10.60;99.90;;;;;;5100815;28;19935;-72
2023/05/07 06:16:39;;;;;;;;;;;10.60;99.90;;;;;;5089425;28;19932;-71
2023/05/07 06:19:05;;;;;;;;;;;10.60;99.90;;;;;;5089414;28;19924;-71
2023/05/07 06:21:31;;;;;;;;;;;10.60;99.90;;;;;;5101872;28;19924;-72
2023/05/07 06:23:56;;;;;;;;;;;10.60;99.90;;;;;;5098393;28;20408;-72
2023/05/07 06:26:22;;;;;;;;;;;10.60;99.90;;;;;;5105130;28;19963;-71
2023/05/07 06:28:47;;;;;;;;;;;10.60;99.90;;;;;;5072116;28;20026;-72
2023/05/07 06:31:22;;;;;;;;;;;10.60;99.90;;;;;;5104040;28;20278;-71
2023/05/07 06:33:48;;;;;;;;;;;10.60;99.90;;;;;;5090580;28;19935;-72
2023/05/07 06:36:14;;;;;;;;;;;10.70;99.90;;;;;;5090272;28;20097;-72
2023/05/07 06:38:39;;;;;;;;;;;10.70;99.90;;;;;;5089192;28;20014;-71
2023/05/07 06:41:05;;;;;;;;;;;10.70;99.90;;;;;;5090455;28;19936;-72
2023/05/07 06:43:31;;;;;;;;;;;10.70;99.90;;;;;;5090852;28;19931;-72
2023/05/07 06:45:56;;;;;;;;;;;10.70;99.90;;;;;;5091146;28;19938;-72
2023/05/07 06:48:22;;;;;;;;;;;10.70;99.90;;;;;;5089429;28;20015;-72
2023/05/07 06:50:47;;;;;;;;;;;10.80;99.90;;;;;;5090438;28;20030;-72
2023/05/07 06:53:13;;;;;;;;;;;10.80;99.90;;;;;;5091014;28;19924;-72
2023/05/07 06:55:38;;;;;;;;;;;10.80;99.90;;;;;;5092470;28;20381;-72
2023/05/07 06:58:05;;;;;;;;;;;10.80;99.90;;;;;;5098332;28;20420;-71
2023/05/07 07:00:31;;;;;;;;;;;10.80;99.90;;;;;;5090152;28;19967;-71
2023/05/07 07:02:57;;;;;;;;;;;10.80;99.90;;;;;;5090488;28;19971;-71
2023/05/07 07:05:22;;;;;;;;;;;10.80;99.90;;;;;;5090401;28;19928;-71
2023/05/07 07:07:52;;;;;;;;;;;10.80;99.90;;;;;;5090995;28;19950;-71
2023/05/07 07:10:21;;;;;;;;;;;10.80;99.90;;;;;;5072760;28;19924;-72
2023/05/07 07:12:46;;;;;;;;;;;10.80;99.90;;;;;;5089594;28;20696;-71
2023/05/07 07:15:13;;;;;;;;;;;10.80;99.90;;;;;;5091001;28;19974;-71
2023/05/07 07:17:38;;;;;;;;;;;10.90;99.90;;;;;;5090332;28;19955;-71
2023/05/07 07:20:04;;;;;;;;;;;11.00;99.90;;;;;;5089843;28;19974;-71
2023/05/07 07:22:30;;;;;;;;;;;11.00;99.90;;;;;;5089878;28;19932;-71
2023/05/07 07:24:55;;;;;;;;;;;11.10;99.90;;;;;;5089770;28;20247;-71
2023/05/07 07:27:21;;;;;;;;;;;11.10;99.90;;;;;;5089721;28;19924;-72
2023/05/07 07:29:46;;;;;;;;;;;11.10;99.90;;;;;;5087633;28;19928;-71
2023/05/07 07:32:12;;;;;;;;;;;11.10;99.90;;;;;;5089101;28;19931;-72
2023/05/07 07:34:37;;;;;;;;;;;11.20;99.90;;;;;;5100481;28;19936;-72
2023/05/07 07:37:05;;;;;;;;;;;11.20;99.90;;;;;;5091697;28;19935;-72
2023/05/07 07:39:34;;;;;;;;;;;11.20;99.90;;;;;;5106494;28;19954;-72
2023/05/07 07:42:00;;;;;;;;;;;11.20;99.90;;;;;;5110499;28;20374;-72
2023/05/07 07:44:25;;;;;;;;;;;11.30;99.90;;;;;;5106592;28;19924;-72
2023/05/07 07:46:51;;;;;;;;;;;11.30;99.90;;;;;;5110875;28;20381;-71
2023/05/07 07:49:17;;;;;;;;;;;11.30;99.90;;;;;;5086457;28;19949;-72
2023/05/07 07:51:42;;;;;;;;;;;11.30;99.90;;;;;;5091097;28;19924;-72
2023/05/07 07:54:08;;;;;;;;;;;11.40;99.90;;;;;;5094656;28;19924;-72
2023/05/07 07:56:34;;;;;;;;;;;11.40;99.90;;;;;;5100260;28;20370;-72
2023/05/07 07:58:59;;;;;;;;;;;11.40;99.90;;;;;;5096245;28;19931;-72
2023/05/07 08:01:25;;;;;;;;;;;11.40;99.90;;;;;;5110617;28;19931;-71
2023/05/07 08:03:51;;;;;;;;;;;11.50;99.90;;;;;;5085267;28;19930;-71
2023/05/07 08:06:16;;;;;;;;;;;11.50;99.90;;;;;;5083835;28;20271;-73
2023/05/07 08:08:42;;;;;;;;;;;11.50;99.90;;;;;;5089597;28;19934;-72
2023/05/07 08:11:07;;;;;;;;;;;11.50;99.90;;;;;;5090130;28;20435;-72
2023/05/07 08:13:33;;;;;;;;;;;11.50;99.90;;;;;;5091126;28;20026;-72
2023/05/07 08:15:59;;;;;;;;;;;11.60;99.90;;;;;;5073143;28;20405;-72
2023/05/07 08:18:25;;;;;;;;;;;11.60;99.90;;;;;;5071888;28;20810;-73
2023/05/07 08:20:50;;;;;;;;;;;11.60;99.90;;;;;;5078359;28;19936;-73
2023/05/07 08:23:16;;;;;;;;;;;11.70;99.90;;;;;;5091790;28;20344;-71
2023/05/07 08:25:42;;;;;;;;;;;11.70;99.90;;;;;;5090150;28;19967;-74
2023/05/07 08:28:08;;;;;;;;;;;11.80;99.90;;;;;;5073828;28;20008;-73
2023/05/07 08:30:33;;;;;;;;;;;11.90;99.90;;;;;;5090303;28;19978;-73
2023/05/07 08:32:59;;;;;;;;;;;11.90;99.90;;;;;;5095351;28;19960;-74
2023/05/07 08:35:26;;;;;;;;;;;12.00;99.90;;;;;;5109970;28;19930;-72
2023/05/07 08:37:51;;;;;;;;;;;12.00;99.90;;;;;;5095643;28;20031;-73
2023/05/07 08:40:17;;;;;;;;;;;12.00;99.90;;;;;;5099693;28;19985;-73
2023/05/07 08:42:43;;;;;;;;;;;12.10;99.90;;;;;;5086623;28;19965;-73
2023/05/07 08:45:10;;;;;;;;;;;12.20;99.90;;;;;;5095143;28;19927;-70
2023/05/07 08:47:58;;;;;;;;;;;12.20;99.90;;;;;;5100411;28;19930;-70
2023/05/07 08:50:24;;;;;;;;;;;12.20;99.90;;;;;;5077871;28;19932;-70
2023/05/07 08:52:50;;;;;;;;;;;12.30;99.90;;;;;;5096286;28;20329;-73
2023/05/07 08:55:16;;;;;;;;;;;12.30;99.90;;;;;;5086840;28;19924;-73
2023/05/07 08:57:41;;;;;;;;;;;12.40;99.90;;;;;;5093986;28;19924;-73
2023/05/07 09:00:07;;;;;;;;;;;12.50;99.90;;;;;;5090595;28;19946;-73
2023/05/07 09:02:35;;;;;;;;;;;12.70;99.90;;;;;;5094346;28;19994;-73
2023/05/07 09:05:01;;;;;;;;;;;12.70;99.90;;;;;;5091891;28;20344;-73
2023/05/07 09:07:26;;;;;;;;;;;12.80;99.90;;;;;;5096688;28;19930;-73
2023/05/07 09:09:53;;;;;;;;;;;12.90;99.90;;;;;;5100281;28;20003;-73
2023/05/07 09:12:18;;;;;;;;;;;12.90;99.90;;;;;;5099792;28;19924;-73
2023/05/07 09:14:45;;;;;;;;;;;13.10;99.90;;;;;;5091738;28;20661;-73
2023/05/07 09:17:11;;;;;;;;;;;13.20;99.90;;;;;;5083676;28;19978;-73
2023/05/07 09:19:36;;;;;;;;;;;13.40;99.90;;;;;;5099136;28;19924;-73
2023/05/07 09:22:03;;;;;;;;;;;13.50;99.90;;;;;;5105715;28;20336;-73
2023/05/07 09:24:33;;;;;;;;;;;13.60;99.90;;;;;;5098109;28;19928;-73
2023/05/07 09:27:00;;;;;;;;;;;13.70;99.90;;;;;;5089400;28;19968;-73
2023/05/07 09:29:25;;;;;;;;;;;13.70;99.90;;;;;;5026752;28;1817871;-73
2023/05/07 09:31:51;;;;;;;;;;;13.70;99.90;;;;;;5091065;28;20279;-73
2023/05/07 09:34:16;;;;;;;;;;;13.70;99.90;;;;;;5100089;28;21078;-73
2023/05/07 09:36:42;;;;;;;;;;;13.70;99.90;;;;;;5091258;28;19924;-73
2023/05/07 09:39:07;;;;;;;;;;;13.70;99.90;;;;;;5090683;28;20335;-73
2023/05/07 09:41:42;;;;;;;;;;;13.60;99.90;;;;;;5089002;28;19934;-74
2023/05/07 09:44:08;;;;;;;;;;;13.60;99.90;;;;;;5090441;28;20327;-73
2023/05/07 09:46:36;;;;;;;;;;;13.70;99.90;;;;;;5091463;28;19928;-73
2023/05/07 09:49:01;;;;;;;;;;;13.70;99.90;;;;;;5091851;28;19928;-73
2023/05/07 09:51:32;;;;;;;;;;;13.70;99.90;;;;;;5091584;28;19928;-73
2023/05/07 09:54:00;;;;;;;;;;;13.80;99.90;;;;;;5090973;28;19931;-73
2023/05/07 09:56:26;;;;;;;;;;;13.90;99.90;;;;;;5088993;28;20014;-74
2023/05/07 09:58:53;;;;;;;;;;;13.90;99.90;;;;;;5088186;28;20062;-74
2023/05/07 10:01:21;;;;;;;;;;;13.90;99.90;;;;;;5072337;28;20408;-73
2023/05/07 10:03:49;;;;;;;;;;;13.90;99.90;;;;;;5092427;28;19931;-73
2023/05/07 10:06:15;;;;;;;;;;;13.90;99.90;;;;;;5091456;28;19931;-73
2023/05/07 10:08:42;;;;;;;;;;;14.00;99.90;;;;;;5094520;28;19927;-73
2023/05/07 10:11:09;;;;;;;;;;;14.10;99.90;;;;;;5092526;28;20286;-70
2023/05/07 10:13:36;;;;;;;;;;;14.20;99.90;;;;;;5095073;28;19923;-76
2023/05/07 10:16:03;;;;;;;;;;;14.20;99.90;;;;;;5094319;28;19928;-72
2023/05/07 10:18:32;;;;;;;;;;;14.20;99.90;;;;;;5093514;28;19930;-72
2023/05/07 10:21:03;;;;;;;;;;;14.30;99.90;;;;;;5092993;28;20366;-72
2023/05/07 10:23:29;;;;;;;;;;;14.40;99.90;;;;;;5096865;28;19923;-72
2023/05/07 10:25:55;;;;;;;;;;;14.40;99.90;;;;;;5090183;28;20389;-72
2023/05/07 10:28:22;;;;;;;;;;;14.50;99.90;;;;;;5088449;28;19930;-72
2023/05/07 10:30:52;;;;;;;;;;;14.50;99.90;;;;;;5089922;28;20955;-72
2023/05/07 10:33:19;;;;;;;;;;;14.70;99.90;;;;;;5101562;28;19977;-72
2023/05/07 10:35:46;;;;;;;;;;;14.90;99.90;;;;;;5099757;28;20014;-72
2023/05/07 10:38:12;;;;;;;;;;;14.90;99.90;;;;;;5106945;28;19955;-72
2023/05/07 10:40:37;;;;;;;;;;;14.90;99.90;;;;;;5106406;28;19990;-72
2023/05/07 10:43:04;;;;;;;;;;;14.90;99.90;;;;;;5107552;28;19927;-72
2023/05/07 10:45:30;;;;;;;;;;;14.90;99.90;;;;;;5093932;28;20459;-72
2023/05/07 10:48:09;;;;;;;;;;;14.90;99.90;;;;;;5106909;28;19924;-72
2023/05/07 10:50:35;;;;;;;;;;;15.00;99.90;;;;;;5105062;28;19931;-72
2023/05/07 10:53:19;;;;;;;;;;;15.30;99.90;;;;;;5100617;28;19994;-73
2023/05/07 10:55:48;;;;;;;;;;;15.40;99.90;;;;;;5101268;28;19928;-72
2023/05/07 10:58:27;;;;;;;;;;;15.60;99.90;;;;;;5101324;28;20026;-72
2023/05/07 11:00:57;;;;;;;;;;;15.60;99.90;;;;;;5107219;28;20283;-72
2023/05/07 11:03:22;;;;;;;;;;;15.50;99.90;;;;;;5106446;28;20305;-72
2023/05/07 11:06:08;;;;;;;;;;;15.50;99.90;;;;;;5095091;28;19924;-72
2023/05/07 11:09:09;;;;;;;;;;;15.60;99.90;;;;;;5073827;28;19924;-72
2023/05/07 11:11:44;;;;;;;;;;;15.60;99.90;;;;;;5007330;28;19933;-72
2023/05/07 11:14:09;;;;;;;;;;;15.70;99.90;;;;;;5080405;28;19924;-73
2023/05/07 11:16:36;;;;;;;;;;;15.90;99.90;;;;;;5092343;28;20413;-73
2023/05/07 11:19:02;;;;;;;;;;;16.00;99.90;;;;;;5099288;28;20003;-72
2023/05/07 11:21:34;;;;;;;;;;;16.10;99.90;;;;;;5104231;28;20565;-72
2023/05/07 11:24:00;;;;;;;;;;;16.10;99.90;;;;;;5100289;28;20325;-72
2023/05/07 11:26:27;;;;;;;;;;;16.10;99.90;;;;;;5089820;28;19923;-72
2023/05/07 11:28:53;;;;;;;;;;;16.10;99.90;;;;;;5108784;28;19923;-73
2023/05/07 11:31:25;;;;;;;;;;;16.10;99.90;;;;;;5091563;28;19969;-72
2023/05/07 11:33:51;;;;;;;;;;;16.10;99.90;;;;;;5071415;28;20015;-73
2023/05/07 11:36:17;;;;;;;;;;;16.20;99.90;;;;;;5088306;28;20061;-72
2023/05/07 11:38:43;;;;;;;;;;;16.30;99.90;;;;;;5071631;28;19938;-72
2023/05/07 11:41:08;;;;;;;;;;;16.50;99.90;;;;;;5089137;28;19927;-73
2023/05/07 11:43:35;;;;;;;;;;;16.80;99.90;;;;;;5089751;28;20309;-73
2023/05/07 11:46:11;;;;;;;;;;;17.40;99.90;;;;;;5089769;28;19924;-73
2023/05/07 11:48:36;;;;;;;;;;;17.60;99.90;;;;;;5089408;28;19932;-73
2023/05/07 11:51:05;;;;;;;;;;;17.70;99.90;;;;;;5088160;28;20378;-72
2023/05/07 11:53:39;;;;;;;;;;;17.90;99.90;;;;;;5090052;28;19974;-73
2023/05/07 11:56:08;;;;;;;;;;;18.00;99.90;;;;;;5089368;28;19928;-73
2023/05/07 11:58:34;;;;;;;;;;;18.10;99.90;;;;;;5087727;28;19939;-73
2023/05/07 12:00:59;;;;;;;;;;;18.20;99.90;;;;;;5089430;28;20394;-72
2023/05/07 12:03:25;;;;;;;;;;;18.10;99.90;;;;;;5087446;28;19924;-73
2023/05/07 12:05:50;;;;;;;;;;;18.10;99.90;;;;;;5089495;28;19928;-72
2023/05/07 12:08:19;;;;;;;;;;;18.20;99.90;;;;;;5088940;28;20377;-73
2023/05/07 12:10:47;;;;;;;;;;;18.50;99.90;;;;;;5088449;28;19968;-73
2023/05/07 12:13:16;;;;;;;;;;;18.60;99.90;;;;;;5089481;28;19924;-72
2023/05/07 12:15:42;;;;;;;;;;;18.70;99.90;;;;;;5089410;28;20019;-73
2023/05/07 12:18:08;;;;;;;;;;;18.80;99.90;;;;;;5089298;28;19967;-73
2023/05/07 12:20:34;;;;;;;;;;;18.90;99.90;;;;;;5090072;28;20002;-73
2023/05/07 12:23:00;;;;;;;;;;;19.00;99.90;;;;;;5094441;28;20043;-73
2023/05/07 12:25:26;;;;;;;;;;;19.30;99.90;;;;;;5093349;28;20007;-73
2023/05/07 12:27:52;;;;;;;;;;;19.30;99.90;;;;;;5093707;28;20007;-73
2023/05/07 12:30:18;;;;;;;;;;;19.40;99.90;;;;;;5093559;28;20489;-73
2023/05/07 12:32:44;;;;;;;;;;;19.30;99.90;;;;;;5092029;28;20011;-73
2023/05/07 12:35:10;;;;;;;;;;;19.30;99.90;;;;;;5099004;28;19924;-73
2023/05/07 12:37:35;;;;;;;;;;;19.20;99.90;;;;;;5106776;28;20293;-73
2023/05/07 12:40:09;;;;;;;;;;;19.20;99.90;;;;;;5110573;28;19924;-73
2023/05/07 12:42:38;;;;;;;;;;;19.20;99.90;;;;;;5106825;28;20412;-73
2023/05/07 12:45:10;;;;;;;;;;;19.20;99.90;;;;;;5100955;27;19931;-73
2023/05/07 12:47:37;;;;;;;;;;;19.30;99.90;;;;;;5089484;28;19971;-73
2023/05/07 12:50:05;;;;;;;;;;;19.50;99.90;;;;;;5092549;28;19924;-72
2023/05/07 12:52:31;;;;;;;;;;;19.80;99.90;;;;;;5104777;28;19924;-71
2023/05/07 12:54:56;;;;;;;;;;;20.00;99.90;;;;;;5091872;28;19950;-71
2023/05/07 12:57:22;;;;;;;;;;;19.90;99.90;;;;;;5091730;28;19928;-72
2023/05/07 12:59:50;;;;;;;;;;;19.90;99.90;;;;;;5106517;28;20301;-71
2023/05/07 13:02:16;;;;;;;;;;;19.90;99.90;;;;;;5104077;28;19923;-72
2023/05/07 13:04:41;;;;;;;;;;;20.00;99.90;;;;;;5098805;28;19924;-71
2023/05/07 13:07:07;;;;;;;;;;;20.20;99.90;;;;;;5100824;28;20019;-72
2023/05/07 13:09:33;;;;;;;;;;;20.40;99.90;;;;;;5107697;28;19927;-72
2023/05/07 13:12:01;;;;;;;;;;;20.70;99.90;;;;;;5103829;28;19970;-72
2023/05/07 13:14:27;;;;;;;;;;;21.00;99.90;;;;;;5088268;28;20376;-72
2023/05/07 13:16:52;;;;;;;;;;;21.10;99.90;;;;;;5091677;28;19924;-72
2023/05/07 13:19:18;;;;;;;;;;;21.20;99.90;;;;;;5069711;28;19924;-72
2023/05/07 13:21:43;;;;;;;;;;;21.40;99.90;;;;;;5103569;28;19928;-72
2023/05/07 13:24:09;;;;;;;;;;;21.50;99.90;;;;;;5103981;28;19924;-72
2023/05/07 13:26:34;;;;;;;;;;;21.60;99.90;;;;;;5105508;28;19923;-72
2023/05/07 13:29:00;;;;;;;;;;;21.60;99.90;;;;;;5105367;28;19980;-72
2023/05/07 13:31:25;;;;;;;;;;;21.70;99.90;;;;;;5103937;28;19924;-72
2023/05/07 13:33:52;;;;;;;;;;;21.90;99.90;;;;;;5090470;28;19924;-72
2023/05/07 13:36:17;;;;;;;;;;;22.10;99.90;;;;;;5106496;28;19931;-72
2023/05/07 13:38:43;;;;;;;;;;;22.20;99.90;;;;;;5101652;28;20151;-72
2023/05/07 13:41:09;;;;;;;16.85;15.35;;;22.20;99.90;;;;;;5101126;28;19988;-72
2023/05/07 13:43:34;;;;;;;;;;;22.40;99.90;;;;;;5091450;28;20054;-72
2023/05/07 13:46:00;;;;;;;;;;;22.60;99.90;;;;;;5093121;28;19920;-72
2023/05/07 13:48:26;;;;;;;16.52;15.10;;;22.70;99.90;;;;;;5098155;28;19954;-72
2023/05/07 13:50:52;;;;;;;;;;;22.90;99.90;;;;;;5102261;28;20725;-72
2023/05/07 13:53:18;;;;;;;;;;;22.60;99.90;;;;;;5092841;28;19920;-73
2023/05/07 13:55:44;;;;;;;14.23;13.02;;;22.70;99.90;;;;;;5089783;28;19920;-73
2023/05/07 13:58:10;;;;;;;;;;;23.00;99.90;;;;;;5097320;28;20144;-73
2023/05/07 14:00:35;;;;;;;;;;;23.20;99.90;;;;;;5075328;28;19966;-72
2023/05/07 14:03:01;;;;;;;;;;;23.10;99.90;;;;;;5097478;28;20003;-74
2023/05/07 14:05:27;;;;;;;;;;;23.20;99.90;;;;;;5084065;28;19920;-73
2023/05/07 14:07:53;;;;;;;;;;;23.40;99.90;;;;;;5086283;28;19930;-73
2023/05/07 14:10:19;;;;;;;;;;;23.90;99.90;;;;;;5081363;28;19981;-73
2023/05/07 14:12:46;;;;;;;;;;;24.10;99.90;;;;;;5080062;28;19924;-73